Lamasco, Kentucky
Current Conditions -  °F | °C
As of 3:35 AM on Sunday 26 Oct 2014 (Local Time) from K5M9 Reporting Station
Clear Clear  
Wind Chill: 54°   Ceiling: Unl
Heat Index: 54°   Visibility: 7mi
Dew Point: 54°   Wind: 3mph
Humidity: 99%   Direction: 310°NW
Pressure: 30.01"   Gusts: NA
Location:  37.0504°N, 88.0159°W
Report Text: K5M9 260835Z AUTO 31003KT 7SM CLR 12/12 A3001 RMK AO2 T01240123
Loading
Personal Weather Stations






























Interactive Weather Map
Tropical Storm Tracking
New forecast layout! Learn more

10-Day Weather Forecast

Advertisements
Track Severe Weather on mobile